Time;durP1;ratioP1;P1;durP2;ratioP2;P2;SDS_P1;SDS_P2;PMS_P1;PMS_P2;Temp;Humidity;BMP_temperature;BMP_pressure;BME280_temperature;BME280_humidity;BME280_pressure;Samples;Min_cycle;Max_cycle;Signal;HPM_P1;HPM_P2
2022/10/20 00:02:23;;;;;;;2.35;1.83;;;;;;;7.57;79.22;99043.28;5105841;28;20295;-64
2022/10/20 00:04:49;;;;;;;4.18;2.25;;;;;;;7.52;78.61;99048.50;5090623;28;20036;-65
2022/10/20 00:07:14;;;;;;;4.00;2.00;;;;;;;7.43;79.62;99041.81;5097324;28;20032;-65
2022/10/20 00:09:40;;;;;;;2.30;1.88;;;;;;;7.45;79.40;99052.06;5100624;28;20062;-64
2022/10/20 00:12:06;;;;;;;3.10;1.67;;;;;;;7.38;79.80;99051.38;5086315;28;20052;-64
2022/10/20 00:14:31;;;;;;;2.85;2.10;;;;;;;7.51;79.74;99058.84;5106410;28;20119;-64
2022/10/20 00:16:58;;;;;;;3.50;1.95;;;;;;;7.52;79.35;99061.38;5088760;28;20074;-64
2022/10/20 00:19:24;;;;;;;2.92;1.98;;;;;;;7.57;80.27;99061.31;5086242;28;20166;-64
2022/10/20 00:21:50;;;;;;;1.98;1.55;;;;;;;7.53;79.64;99057.94;5093289;28;20059;-65
2022/10/20 00:24:15;;;;;;;2.88;2.15;;;;;;;7.34;80.93;99066.88;5087044;28;20028;-65
2022/10/20 00:26:41;;;;;;;2.50;2.10;;;;;;;7.33;80.37;99071.19;5086116;28;20031;-64
2022/10/20 00:29:06;;;;;;;3.13;2.20;;;;;;;7.44;79.92;99083.91;5086233;28;20047;-65
2022/10/20 00:31:32;;;;;;;2.80;2.13;;;;;;;7.44;80.06;99086.47;5098917;28;20027;-64
2022/10/20 00:33:58;;;;;;;2.58;2.20;;;;;;;7.32;80.88;99084.94;5106028;28;20046;-64
2022/10/20 00:36:24;;;;;;;2.90;1.95;;;;;;;7.44;80.49;99086.47;5102301;28;20044;-65
2022/10/20 00:38:50;;;;;;;2.45;1.95;;;;;;;7.40;80.59;99087.41;5085851;28;20028;-65
2022/10/20 00:41:18;;;;;;;2.97;2.20;;;;;;;7.49;80.71;99088.94;5103605;28;20016;-64
2022/10/20 00:43:46;;;;;;;3.60;1.92;;;;;;;7.53;80.02;99098.31;5104232;28;20297;-65
2022/10/20 00:46:16;;;;;;;3.33;2.05;;;;;;;7.30;80.63;99081.56;5095476;28;20032;-64
2022/10/20 00:48:44;;;;;;;2.47;1.92;;;;;;;7.35;80.43;99100.34;5091019;28;20062;-66
2022/10/20 00:51:14;;;;;;;2.33;2.05;;;;;;;7.41;80.60;99110.56;5105780;28;20035;-65
2022/10/20 00:53:39;;;;;;;2.28;1.98;;;;;;;7.34;80.42;99108.97;5105802;28;20032;-64
2022/10/20 00:56:05;;;;;;;4.97;1.90;;;;;;;7.42;79.97;99109.69;5088232;28;20043;-64
2022/10/20 00:58:34;;;;;;;2.35;2.08;;;;;;;7.45;80.69;99105.34;5085440;28;20028;-65
2022/10/20 01:00:59;;;;;;;3.90;1.92;;;;;;;7.52;79.97;99110.34;5093795;28;20035;-64
2022/10/20 01:03:38;;;;;;;2.20;1.63;;;;;;;7.48;80.75;99113.88;5102249;28;20088;-65
2022/10/20 01:06:04;;;;;;;3.53;2.10;;;;;;;7.55;80.26;99115.47;5097804;28;20048;-64
2022/10/20 01:08:29;;;;;;;2.67;1.90;;;;;;;7.32;80.04;99125.31;5104981;28;20052;-64
2022/10/20 01:11:26;;;;;;;2.38;1.75;;;;;;;7.36;81.48;99124.38;5088463;28;20028;-65
2022/10/20 01:14:17;;;;;;;2.45;1.70;;;;;;;7.36;81.05;99126.97;5100606;28;20020;-65
2022/10/20 01:16:57;;;;;;;2.85;1.58;;;;;;;7.32;80.12;99113.28;5090974;28;20328;-66
2022/10/20 01:19:23;;;;;;;2.17;1.70;;;;;;;7.44;80.73;99122.53;5096527;28;20331;-65
2022/10/20 01:21:58;;;;;;;1.58;1.40;;;;;;;7.34;80.81;99133.84;5098456;28;20024;-65
2022/10/20 01:24:26;;;;;;;3.38;1.85;;;;;;;7.32;80.51;99133.88;5101086;28;20086;-65
2022/10/20 01:27:28;;;;;;;2.83;1.75;;;;;;;7.40;80.66;99137.19;5105090;28;20035;-64
2022/10/20 01:30:06;;;;;;;1.88;1.77;;;;;;;7.29;80.45;99139.09;5084929;28;20036;-64
2022/10/20 01:32:53;;;;;;;3.13;1.60;;;;;;;7.26;81.44;99139.97;5101335;28;20036;-66
2022/10/20 01:35:25;;;;;;;2.10;1.80;;;;;;;7.22;81.01;99142.66;5086873;28;20036;-67
2022/10/20 01:37:57;;;;;;;;;;;;;;;7.26;80.78;99146.88;5072322;28;20094;-65
2022/10/20 01:40:29;;;;;;;3.73;1.67;;;;;;;7.31;80.77;99149.38;5095519;28;19919;-65
2022/10/20 01:42:59;;;;;;;2.30;1.63;;;;;;;7.28;80.60;99147.69;5097534;28;20457;-65
2022/10/20 01:45:29;;;;;;;2.83;1.75;;;;;;;7.06;81.05;99135.16;5103055;28;20028;-64
2022/10/20 01:47:57;;;;;;;1.67;1.58;;;;;;;7.13;81.13;99141.06;5104983;28;20065;-65
2022/10/20 01:50:23;;;;;;;1.70;1.50;;;;;;;7.31;80.11;99157.09;5098522;28;20062;-65
2022/10/20 01:52:53;;;;;;;1.73;1.60;;;;;;;7.24;80.26;99151.22;5104451;28;20102;-64
2022/10/20 01:55:18;;;;;;;2.70;1.65;;;;;;;7.23;79.97;99142.63;5094168;28;20309;-65
2022/10/20 01:58:08;;;;;;;1.95;1.42;;;;;;;7.30;79.28;99148.53;5084067;28;20028;-65
2022/10/20 02:00:37;;;;;;;1.60;1.50;;;;;;;7.31;79.10;99160.53;5077645;28;20040;-65
2022/10/20 02:03:27;;;;;;;1.83;1.30;;;;;;;7.31;78.43;99170.84;5105488;28;20036;-64
2022/10/20 02:05:53;;;;;;;2.83;1.30;;;;;;;7.33;77.11;99170.81;5089671;28;20039;-65
2022/10/20 02:08:42;;;;;;;1.40;1.27;;;;;;;7.38;77.79;99167.28;5084191;28;20024;-64
2022/10/20 02:11:17;;;;;;;1.30;1.20;;;;;;;7.35;77.51;99148.44;5091934;28;20221;-65
2022/10/20 02:13:43;;;;;;;1.65;1.20;;;;;;;7.48;77.00;99170.56;5094642;28;20096;-65
2022/10/20 02:16:18;;;;;;;1.92;1.02;;;;;;;7.43;77.41;99164.63;5093821;28;20061;-64
2022/10/20 02:18:46;;;;;;;2.33;1.10;;;;;;;7.46;77.03;99197.22;5093994;28;20026;-66
2022/10/20 02:21:12;;;;;;;1.40;1.10;;;;;;;7.39;76.99;99183.56;5094552;28;20277;-66
2022/10/20 02:23:42;;;;;;;1.38;1.27;;;;;;;7.26;77.58;99177.78;5093356;28;20044;-66
2022/10/20 02:26:13;;;;;;;1.20;1.10;;;;;;;7.26;77.71;99180.34;5090311;28;20032;-67
2022/10/20 02:28:44;;;;;;;4.38;1.90;;;;;;;7.26;78.91;99214.69;5087969;28;20037;-64
2022/10/20 02:31:10;;;;;;;4.82;1.77;;;;;;;7.28;78.76;99208.66;5093898;28;20224;-65
2022/10/20 02:33:37;;;;;;;2.35;2.13;;;;;;;7.28;79.74;99199.19;5097839;28;20024;-64
2022/10/20 02:36:05;;;;;;;2.70;2.13;;;;;;;7.30;80.00;99197.47;5093232;28;20044;-66
2022/10/20 02:38:31;;;;;;;3.47;2.60;;;;;;;7.36;80.54;99222.28;5091491;28;20028;-66
2022/10/20 02:40:56;;;;;;;2.30;2.10;;;;;;;7.39;80.54;99212.75;5092449;28;20043;-67
2022/10/20 02:43:22;;;;;;;2.63;2.22;;;;;;;7.43;80.58;99216.97;5092427;28;20028;-65
2022/10/20 02:45:47;;;;;;;2.85;2.10;;;;;;;7.51;80.57;99221.16;5091994;28;20043;-65
2022/10/20 02:48:13;;;;;;;4.28;2.28;;;;;;;7.36;81.24;99223.13;5090779;28;20020;-65
2022/10/20 02:50:38;;;;;;;2.88;2.20;;;;;;;7.43;82.10;99229.03;5093302;28;20024;-65
2022/10/20 02:53:05;;;;;;;4.60;2.80;;;;;;;7.36;81.82;99230.00;5095074;28;20031;-65
2022/10/20 02:55:30;;;;;;;3.20;2.90;;;;;;;7.33;81.65;99230.06;5091905;28;20287;-65
2022/10/20 02:57:56;;;;;;;5.10;3.60;;;;;;;7.36;81.85;99230.00;5091876;28;20125;-65
2022/10/20 03:00:22;;;;;;;3.80;3.40;;;;;;;7.35;82.05;99234.28;5091110;28;20313;-66
2022/10/20 03:02:48;;;;;;;3.47;3.17;;;;;;;7.44;82.58;99241.03;5092535;28;20048;-65
2022/10/20 03:05:14;;;;;;;4.43;4.03;;;;;;;7.46;81.42;99241.84;5093309;28;20016;-64
2022/10/20 03:07:39;;;;;;;7.13;4.25;;;;;;;7.47;82.31;99245.28;5092545;28;20312;-65
2022/10/20 03:10:06;;;;;;;4.68;4.03;;;;;;;7.52;82.20;99261.53;5094755;28;20025;-66
2022/10/20 03:12:31;;;;;;;5.63;4.80;;;;;;;7.29;83.11;99257.56;5094166;28;20087;-66
2022/10/20 03:14:57;;;;;;;6.72;5.03;;;;;;;7.45;82.84;99265.91;5083533;28;20070;-65
2022/10/20 03:17:23;;;;;;;8.38;6.22;;;;;;;7.23;83.25;99262.81;5083015;28;20047;-65
2022/10/20 03:19:48;;;;;;;8.50;6.65;;;;;;;7.18;83.50;99262.03;5092048;28;20056;-67
2022/10/20 03:22:14;;;;;;;8.63;6.70;;;;;;;7.22;82.52;99267.09;5090615;28;20021;-67
2022/10/20 03:24:40;;;;;;;6.57;5.95;;;;;;;7.27;83.01;99261.91;5093246;28;20051;-67
2022/10/20 03:27:06;;;;;;;7.45;6.65;;;;;;;7.39;82.77;99272.00;5092571;28;20048;-67
2022/10/20 03:29:31;;;;;;;7.22;6.32;;;;;;;7.40;83.46;99276.28;5083479;28;20024;-65
2022/10/20 03:31:57;;;;;;;8.73;7.82;;;;;;;7.26;82.50;99270.50;5083528;28;20031;-64
2022/10/20 03:34:23;;;;;;;7.63;6.78;;;;;;;7.39;82.84;99274.56;5103914;28;20189;-65
2022/10/20 03:36:49;;;;;;;8.00;7.20;;;;;;;7.23;83.36;99278.28;5102336;28;20055;-65
2022/10/20 03:39:14;;;;;;;7.63;6.82;;;;;;;7.30;83.39;99285.03;5075204;28;20078;-66
2022/10/20 03:41:40;;;;;;;8.60;7.22;;;;;;;7.07;83.63;99283.63;5105642;28;20024;-66
2022/10/20 03:44:06;;;;;;;10.02;7.88;;;;;;;6.98;84.25;99283.75;5090820;28;20096;-65
2022/10/20 03:46:31;;;;;;;8.05;7.20;;;;;;;7.02;84.02;99289.72;5097802;28;20031;-66
2022/10/20 03:48:57;;;;;;;9.68;7.88;;;;;;;7.08;84.84;99295.66;5100565;28;20024;-66
2022/10/20 03:51:23;;;;;;;11.85;7.68;;;;;;;7.17;84.78;99294.66;5088436;28;20205;-65
2022/10/20 03:53:48;;;;;;;10.00;8.13;;;;;;;7.14;83.93;99294.72;5104665;28;20055;-66
2022/10/20 03:56:19;;;;;;;9.32;8.43;;;;;;;7.05;85.33;99305.13;5097225;28;20087;-66
2022/10/20 03:58:45;;;;;;;9.15;8.25;;;;;;;7.02;85.27;99308.59;5096131;28;20082;-66
2022/10/20 04:01:14;;;;;;;9.43;7.32;;;;;;;6.79;85.61;99290.03;5096515;28;20066;-66
2022/10/20 04:03:40;;;;;;;9.98;8.00;;;;;;;6.80;86.87;99309.72;5097168;28;20031;-65
2022/10/20 04:06:05;;;;;;;9.50;7.47;;;;;;;6.91;86.47;99301.00;5094921;28;20279;-65
2022/10/20 04:08:31;;;;;;;9.95;7.57;;;;;;;6.80;86.10;99314.88;5095292;28;20024;-65
2022/10/20 04:10:57;;;;;;;11.13;7.97;;;;;;;6.81;86.71;99316.56;5095263;28;20048;-64
2022/10/20 04:13:23;;;;;;;8.45;7.53;;;;;;;6.72;86.39;99325.25;5100876;28;20375;-64
2022/10/20 04:15:48;;;;;;;9.70;7.85;;;;;;;6.82;86.08;99313.97;5101499;28;20028;-65
2022/10/20 04:18:14;;;;;;;9.00;8.07;;;;;;;6.80;87.00;99326.03;5086229;28;20028;-65
2022/10/20 04:20:40;;;;;;;8.30;7.50;;;;;;;6.81;86.62;99320.03;5098897;28;20069;-66
2022/10/20 04:23:05;;;;;;;7.20;6.50;;;;;;;6.62;85.82;99327.09;5100037;28;20040;-66
2022/10/20 04:25:31;;;;;;;8.68;7.18;;;;;;;6.53;86.96;99335.75;5095539;28;20059;-66
2022/10/20 04:27:58;;;;;;;10.40;7.30;;;;;;;6.38;86.87;99317.91;5085896;28;20028;-66
2022/10/20 04:30:24;;;;;;;9.13;7.00;;;;;;;6.48;87.13;99332.38;5087271;28;20320;-66
2022/10/20 04:32:50;;;;;;;9.23;8.18;;;;;;;6.63;87.18;99338.25;5106059;28;20038;-66
2022/10/20 04:35:16;;;;;;;9.15;7.30;;;;;;;6.56;87.31;99343.44;5106058;28;20051;-66
2022/10/20 04:37:41;;;;;;;9.68;7.20;;;;;;;6.70;86.55;99347.59;5096966;28;20043;-68
2022/10/20 04:40:08;;;;;;;10.88;6.95;;;;;;;6.61;86.98;99342.53;5093888;28;20078;-67
2022/10/20 04:42:33;;;;;;;10.85;7.57;;;;;;;6.73;86.72;99352.72;5093656;28;20020;-67
2022/10/20 04:44:59;;;;;;;9.25;7.25;;;;;;;6.74;86.73;99364.69;5098166;28;20042;-65
2022/10/20 04:47:24;;;;;;;12.90;7.65;;;;;;;6.70;86.52;99351.03;5095070;28;20089;-67
2022/10/20 04:49:50;;;;;;;9.23;7.88;;;;;;;6.80;86.94;99356.91;5092008;28;20024;-66
2022/10/20 04:52:16;;;;;;;10.30;7.70;;;;;;;6.87;87.00;99363.69;5085280;28;20031;-67
2022/10/20 04:54:41;;;;;;;10.82;7.97;;;;;;;6.73;86.98;99365.56;5088664;28;20028;-67
2022/10/20 04:57:09;;;;;;;11.65;8.15;;;;;;;6.67;87.18;99369.06;5085545;28;20362;-66
2022/10/20 04:59:35;;;;;;;8.68;7.15;;;;;;;6.81;86.67;99378.34;5086268;28;20040;-66
2022/10/20 05:02:00;;;;;;;8.73;7.45;;;;;;;6.94;86.43;99384.22;5101641;28;20308;-67
2022/10/20 05:04:26;;;;;;;7.68;6.72;;;;;;;7.04;87.17;99381.53;5095457;28;20028;-66
2022/10/20 05:06:51;;;;;;;10.60;7.93;;;;;;;6.96;86.34;99375.59;5089824;28;20035;-67
2022/10/20 05:09:18;;;;;;;9.45;7.60;;;;;;;7.03;85.56;99382.38;5105287;28;20047;-66
2022/10/20 05:11:44;;;;;;;10.50;8.32;;;;;;;7.12;85.99;99381.41;5105455;28;20020;-67
2022/10/20 05:14:10;;;;;;;8.57;7.35;;;;;;;7.19;85.94;99389.94;5089881;28;20210;-67
2022/10/20 05:16:35;;;;;;;13.20;7.78;;;;;;;7.15;84.96;99393.41;5095151;28;20034;-66
2022/10/20 05:19:01;;;;;;;10.60;7.97;;;;;;;7.07;85.43;99396.94;5099195;28;20040;-67
2022/10/20 05:21:30;;;;;;;9.75;8.15;;;;;;;7.12;85.29;99406.31;5086259;28;20024;-66
2022/10/20 05:23:57;;;;;;;11.68;7.45;;;;;;;7.23;84.77;99399.31;5087445;28;20259;-67
2022/10/20 05:26:24;;;;;;;7.80;6.57;;;;;;;7.15;84.62;99401.13;5102254;28;20042;-67
2022/10/20 05:28:50;;;;;;;8.27;6.78;;;;;;;7.09;85.23;99409.78;5091923;28;20128;-67
2022/10/20 05:31:19;;;;;;;9.25;6.43;;;;;;;7.22;84.04;99403.59;5093269;28;20031;-65
2022/10/20 05:33:50;;;;;;;9.40;7.45;;;;;;;7.15;84.36;99393.41;5105012;28;20178;-67
2022/10/20 05:36:18;;;;;;;9.43;7.15;;;;;;;7.05;84.26;99408.97;5104794;28;20276;-67
2022/10/20 05:38:44;;;;;;;9.43;6.80;;;;;;;7.21;83.71;99414.78;5084753;28;20036;-65
2022/10/20 05:41:13;;;;;;;8.60;7.15;;;;;;;7.28;84.54;99418.13;5099943;28;20103;-66
2022/10/20 05:43:39;;;;;;;8.48;6.53;;;;;;;7.06;83.73;99422.69;5093385;28;20092;-66
2022/10/20 05:46:06;;;;;;;9.63;7.13;;;;;;;7.08;83.68;99419.25;5090742;28;20028;-66
2022/10/20 05:48:32;;;;;;;7.53;6.05;;;;;;;7.11;82.42;99422.63;5101540;28;20031;-66
2022/10/20 05:51:13;;;;;;;7.50;6.50;;;;;;;7.19;82.37;99425.97;5082999;28;20264;-66
2022/10/20 05:53:39;;;;;;;8.17;6.10;;;;;;;7.05;81.99;99431.28;5103444;28;20027;-66
2022/10/20 05:56:06;;;;;;;7.07;5.63;;;;;;;7.17;82.22;99422.56;5089584;28;20040;-66
2022/10/20 05:58:32;;;;;;;6.90;6.10;;;;;;;7.36;81.33;99433.50;5094162;28;20092;-67
2022/10/20 06:01:16;;;;;;;8.45;6.45;;;;;;;7.39;81.50;99464.38;5098960;28;20020;-67
2022/10/20 06:03:47;;;;;;;9.82;6.10;;;;;;;7.21;81.01;99434.53;5084280;28;20035;-66
2022/10/20 06:06:12;;;;;;;9.07;6.57;;;;;;;7.18;79.83;99444.88;5083473;28;20024;-64
2022/10/20 06:08:38;;;;;;;8.65;5.78;;;;;;;7.07;79.98;99440.69;5101811;28;20047;-65
2022/10/20 06:11:06;;;;;;;7.07;5.35;;;;;;;7.26;80.23;99443.91;5089557;28;20025;-65
2022/10/20 06:13:32;;;;;;;7.60;5.55;;;;;;;7.25;80.30;99420.75;5089807;28;20017;-63
2022/10/20 06:16:20;;;;;;;6.80;6.10;;;;;;;7.30;80.29;99438.75;5087990;28;20178;-63
2022/10/20 06:18:47;;;;;;;7.00;5.00;;;;;;;7.32;78.27;99458.44;5100467;28;20098;-64
2022/10/20 06:21:16;;;;;;;5.90;5.13;;;;;;;7.45;78.51;99440.25;5092566;28;20020;-64
2022/10/20 06:23:42;;;;;;;8.20;4.45;;;;;;;7.50;77.07;99457.38;5098082;28;20031;-65
2022/10/20 06:26:10;;;;;;;5.22;4.45;;;;;;;7.48;76.51;99455.69;5088185;28;20166;-66
2022/10/20 06:28:37;;;;;;;6.55;4.10;;;;;;;7.65;76.54;99460.63;5083450;28;20032;-66
2022/10/20 06:31:13;;;;;;;6.57;4.22;;;;;;;7.78;76.08;99452.69;5089041;28;20215;-65
2022/10/20 06:33:38;;;;;;;6.43;3.95;;;;;;;7.77;75.08;99470.78;5103959;28;20032;-66
2022/10/20 06:36:04;;;;;;;4.68;3.90;;;;;;;7.83;75.36;99478.41;5103761;28;20067;-66
2022/10/20 06:38:30;;;;;;;6.25;3.75;;;;;;;7.88;72.87;99478.34;5103736;28;20039;-66
2022/10/20 06:40:56;;;;;;;4.43;3.47;;;;;;;7.82;71.65;99468.13;5090713;28;20020;-66
2022/10/20 06:43:21;;;;;;;5.07;3.78;;;;;;;7.88;72.04;99474.06;5091735;28;20037;-66
2022/10/20 06:46:02;;;;;;;5.15;3.13;;;;;;;7.76;70.87;99476.78;5100298;28;20204;-66
2022/10/20 06:48:28;;;;;;;4.53;3.13;;;;;;;7.67;70.50;99474.34;5084005;28;20400;-66
2022/10/20 06:50:58;;;;;;;5.10;3.35;;;;;;;7.58;69.34;99477.88;5103568;28;20036;-65
2022/10/20 06:53:25;;;;;;;4.43;3.03;;;;;;;7.60;69.32;99476.16;5085594;28;20326;-65
2022/10/20 06:55:57;;;;;;;6.25;3.30;;;;;;;7.37;70.87;99482.44;5099090;28;20032;-64
2022/10/20 06:58:23;;;;;;;4.10;3.35;;;;;;;7.53;71.62;99477.94;5090270;28;20099;-65
2022/10/20 07:01:02;;;;;;;6.07;2.83;;;;;;;7.59;68.78;99477.00;5099549;28;20039;-66
2022/10/20 07:03:29;;;;;;;3.97;3.20;;;;;;;7.71;69.83;99479.44;5082248;28;20213;-65
2022/10/20 07:05:56;;;;;;;3.40;2.60;;;;;;;7.69;68.17;99480.31;5082861;28;20021;-66
2022/10/20 07:08:22;;;;;;;5.07;3.28;;;;;;;7.78;68.18;99486.22;5099470;28;20031;-64
2022/10/20 07:10:56;;;;;;;3.78;2.42;;;;;;;7.74;66.27;99487.13;5092208;28;20020;-65
2022/10/20 07:13:21;;;;;;;3.00;2.70;;;;;;;7.94;66.61;99489.44;5089938;28;20220;-65
2022/10/20 07:15:47;;;;;;;13.98;8.40;;;;;;;8.23;66.80;99489.88;5100272;28;20032;-65
2022/10/20 07:18:12;;;;;;;2.88;2.58;;;;;;;8.38;66.79;99484.50;5083341;28;20350;-68
2022/10/20 07:20:38;;;;;;;3.75;2.70;;;;;;;8.24;65.54;99487.28;5082903;28;20052;-66
2022/10/20 07:23:04;;;;;;;4.97;2.60;;;;;;;8.48;66.34;99484.38;5087719;28;20079;-66
2022/10/20 07:25:29;;;;;;;4.28;2.55;;;;;;;8.75;65.92;99485.63;5092089;28;20032;-66
2022/10/20 07:27:55;;;;;;;3.15;2.25;;;;;;;8.50;63.50;99485.22;5099425;28;20032;-66
2022/10/20 07:30:20;;;;;;;3.50;2.50;;;;;;;8.80;62.74;99495.00;5081742;28;20070;-66
2022/10/20 07:32:46;;;;;;;2.60;2.40;;;;;;;8.97;62.93;99501.63;5088287;28;20347;-66
2022/10/20 07:35:11;;;;;;;4.60;2.47;;;;;;;8.97;59.94;99505.03;5104661;28;20092;-66
2022/10/20 07:37:37;;;;;;;3.92;2.50;;;;;;;8.84;60.40;99507.88;5093382;28;20024;-65
2022/10/20 07:40:03;;;;;;;2.72;2.40;;;;;;;8.79;59.23;99508.81;5088290;28;20372;-66
2022/10/20 07:42:29;;;;;;;4.07;2.53;;;;;;;8.57;60.07;99504.88;5102606;28;20024;-65
2022/10/20 07:44:54;;;;;;;5.53;2.50;;;;;;;8.66;60.50;99509.88;5082869;28;20048;-66
2022/10/20 07:47:20;;;;;;;2.88;2.28;;;;;;;8.77;61.05;99514.88;5098716;28;20343;-66
2022/10/20 07:49:46;;;;;;;3.63;2.70;;;;;;;8.76;61.07;99516.59;5091883;28;20032;-66
2022/10/20 07:52:11;;;;;;;2.50;2.00;;;;;;;8.51;59.67;99505.84;5088967;28;20031;-66
2022/10/20 07:54:37;;;;;;;2.30;2.10;;;;;;;8.49;59.20;99514.47;5101431;28;20076;-67
2022/10/20 07:57:03;;;;;;;3.42;2.00;;;;;;;8.57;60.51;99502.31;5102986;28;20058;-66
2022/10/20 07:59:28;;;;;;;4.55;2.40;;;;;;;8.39;57.88;99521.47;5097236;28;20209;-67
2022/10/20 08:01:54;;;;;;;3.47;2.13;;;;;;;8.37;59.65;99524.06;5102597;28;20028;-66
2022/10/20 08:04:20;;;;;;;4.50;2.20;;;;;;;8.24;58.65;99523.41;5102244;28;20316;-68
2022/10/20 08:06:46;;;;;;;3.13;2.30;;;;;;;8.24;59.00;99514.81;5099178;28;20035;-65
2022/10/20 08:09:11;;;;;;;5.00;2.25;;;;;;;8.31;60.46;99529.34;5082746;28;20035;-66
2022/10/20 08:11:37;;;;;;;3.45;2.22;;;;;;;8.33;60.13;99535.31;5099391;28;20024;-65
2022/10/20 08:14:03;;;;;;;3.60;2.30;;;;;;;8.22;59.90;99512.25;5089741;28;20070;-66
2022/10/20 08:16:29;;;;;;;2.28;2.05;;;;;;;8.41;61.45;99535.22;5089536;28;20028;-66
2022/10/20 08:18:55;;;;;;;4.85;2.25;;;;;;;8.45;61.37;99526.56;5101013;28;20036;-66
2022/10/20 08:21:24;;;;;;;3.65;2.30;;;;;;;8.24;59.72;99528.56;5086219;28;20021;-66
2022/10/20 08:23:50;;;;;;;2.10;1.88;;;;;;;8.05;59.45;99524.53;5089692;28;20062;-66
2022/10/20 08:26:19;;;;;;;2.58;2.22;;;;;;;8.09;60.79;99536.50;5099756;28;20028;-65
2022/10/20 08:28:46;;;;;;;2.17;1.90;;;;;;;8.13;60.98;99536.44;5095226;28;20028;-66
2022/10/20 08:31:12;;;;;;;2.35;2.13;;;;;;;8.16;61.35;99542.44;5091916;28;20024;-65
2022/10/20 08:33:39;;;;;;;3.63;2.17;;;;;;;8.21;60.76;99538.94;5105059;28;20035;-66
2022/10/20 08:36:11;;;;;;;3.50;2.50;;;;;;;7.99;62.60;99530.63;5104912;28;20044;-66
2022/10/20 08:38:37;;;;;;;3.95;2.85;;;;;;;7.69;63.08;99540.44;5088057;28;20469;-66
2022/10/20 08:41:06;;;;;;;4.25;2.92;;;;;;;7.56;63.94;99541.47;5098635;28;20028;-66
2022/10/20 08:43:34;;;;;;;8.55;2.78;;;;;;;7.62;64.72;99517.34;5097245;28;20024;-66
2022/10/20 08:45:59;;;;;;;3.67;2.97;;;;;;;7.64;63.89;99534.50;5088288;28;20297;-66
2022/10/20 08:48:28;;;;;;;5.22;2.95;;;;;;;7.55;63.64;99525.16;5104368;28;20043;-65
2022/10/20 08:50:54;;;;;;;4.40;3.30;;;;;;;7.70;62.15;99543.91;5105780;28;20055;-66
2022/10/20 08:53:22;;;;;;;4.00;2.95;;;;;;;7.54;60.88;99541.50;5090553;28;20094;-67
2022/10/20 08:55:49;;;;;;;4.28;3.10;;;;;;;7.53;61.16;99533.78;5096085;28;20335;-67
2022/10/20 08:58:18;;;;;;;3.47;2.60;;;;;;;7.50;60.66;99544.13;5099680;28;20293;-67
2022/10/20 09:00:45;;;;;;;2.83;2.53;;;;;;;7.64;60.75;99544.81;5086256;28;20212;-65
2022/10/20 09:03:20;;;;;;;2.35;2.10;;;;;;;7.46;60.46;99530.41;5085421;28;20091;-66
2022/10/20 09:06:08;;;;;;;2.65;2.08;;;;;;;7.42;59.37;99532.19;5089603;28;20034;-66
2022/10/20 09:08:36;;;;;;;3.40;1.80;;;;;;;7.63;60.21;99532.78;5101750;28;20320;-66
2022/10/20 09:11:04;;;;;;;2.10;1.70;;;;;;;7.70;58.05;99549.06;5102909;28;20024;-66
2022/10/20 09:13:33;;;;;;;2.17;1.80;;;;;;;7.93;59.68;99553.91;5097550;28;20074;-65
2022/10/20 09:16:04;;;;;;;2.50;2.30;;;;;;;7.63;60.49;99535.38;5088954;28;20027;-67
2022/10/20 09:18:31;;;;;;;3.03;2.35;;;;;;;7.70;59.37;99551.63;5098406;28;20073;-66
2022/10/20 09:21:17;;;;;;;2.85;2.38;;;;;;;7.87;60.37;99551.44;5099762;28;20028;-67
2022/10/20 09:23:47;;;;;;;2.83;1.60;;;;;;;7.65;59.87;99564.53;5101025;28;20046;-66
2022/10/20 09:26:22;;;;;;;2.85;1.88;;;;;;;7.81;60.47;99565.25;5073166;28;20028;-66
2022/10/20 09:28:50;;;;;;;2.00;1.80;;;;;;;7.80;59.65;99548.06;5084333;28;20052;-65
2022/10/20 09:31:37;;;;;;;3.42;2.03;;;;;;;7.65;59.86;99564.53;5084703;28;20031;-66
2022/10/20 09:34:21;;;;;;;2.40;2.15;;;;;;;7.51;60.77;99564.72;5099914;28;20324;-66
2022/10/20 09:36:48;;;;;;;3.33;2.00;;;;;;;7.83;61.42;99560.91;5102185;28;20036;-65
2022/10/20 09:39:23;;;;;;;4.78;2.15;;;;;;;7.92;61.54;99570.25;5084630;28;20033;-66
2022/10/20 09:41:58;;;;;;;2.55;2.05;;;;;;;7.76;61.48;99551.53;5101865;28;20032;-66
2022/10/20 09:44:24;;;;;;;3.55;2.30;;;;;;;7.74;61.44;99559.31;5095855;28;20024;-66
2022/10/20 09:46:53;;;;;;;4.75;2.22;;;;;;;7.72;61.56;99565.34;5104769;28;20118;-65
2022/10/20 09:49:30;;;;;;;2.70;2.17;;;;;;;7.52;61.70;99539.81;5099362;28;20103;-66
2022/10/20 09:51:57;;;;;;;2.85;1.83;;;;;;;7.72;62.35;99561.03;5087473;28;20064;-65
2022/10/20 09:54:24;;;;;;;3.25;2.22;;;;;;;7.75;63.33;99567.88;5104664;28;20031;-66
2022/10/20 09:56:51;;;;;;;6.65;2.35;;;;;;;7.86;62.67;99562.59;5087095;28;20071;-65
2022/10/20 09:59:39;;;;;;;8.35;4.00;;;;;;;7.95;62.74;99552.16;5090269;28;20094;-66
2022/10/20 10:02:13;;;;;;;5.72;2.83;;;;;;;8.10;61.90;99567.44;5096655;28;20039;-65
2022/10/20 10:04:42;;;;;;;5.80;2.67;;;;;;;8.21;63.37;99564.72;5092630;28;20032;-68
2022/10/20 10:07:26;;;;;;;3.50;2.30;;;;;;;8.24;63.33;99567.25;5088417;28;20020;-66
2022/10/20 10:10:18;;;;;;;3.45;2.60;;;;;;;8.25;63.02;99544.88;5102764;28;20028;-66
2022/10/20 10:12:54;;;;;;;3.47;2.00;;;;;;;8.26;61.21;99552.59;5085578;28;20028;-66
2022/10/20 10:15:35;;;;;;;4.13;2.08;;;;;;;8.27;61.04;99553.47;5103087;28;20028;-67
2022/10/20 10:18:20;;;;;;;2.22;1.77;;;;;;;8.32;61.91;99554.22;5093084;28;20024;-66
2022/10/20 10:20:46;;;;;;;2.00;1.73;;;;;;;8.36;62.08;99561.06;5085471;28;20032;-67
2022/10/20 10:23:18;;;;;;;4.57;2.00;;;;;;;8.38;62.18;99571.34;5086819;28;20027;-67
2022/10/20 10:25:43;;;;;;;;;;;;;;;8.21;62.01;99558.69;5093298;28;20028;-67
2022/10/20 10:28:32;;;;;;;2.70;1.88;;;;;;;8.22;61.57;99565.56;5099286;28;20019;-67
2022/10/20 10:31:17;;;;;;;2.28;2.08;;;;;;;8.31;62.19;99568.03;5099858;28;20036;-66
2022/10/20 10:33:43;;;;;;;2.47;2.10;;;;;;;8.18;61.69;99563.91;5093836;28;20032;-66
2022/10/20 10:36:29;;;;;;;3.17;2.28;;;;;;;8.11;63.69;99552.84;5104199;28;20055;-66
2022/10/20 10:38:55;;;;;;;2.42;1.95;;;;;;;8.21;63.03;99569.88;5103601;28;20051;-67
2022/10/20 10:41:49;;;;;;;2.42;1.95;;;;;;;8.32;62.46;99568.88;5088696;28;20046;-67
2022/10/20 10:44:35;;;;;;;3.55;2.05;;;;;;;8.13;62.31;99546.75;5097207;28;20095;-67
2022/10/20 10:47:31;;;;;;;4.55;2.00;;;;;;;8.08;61.93;99570.91;5091857;28;20028;-66
2022/10/20 10:50:15;;;;;;;2.78;1.90;;;;;;;8.16;61.56;99569.09;5087132;28;20055;-67
2022/10/20 10:52:41;;;;;;;4.75;1.92;;;;;;;8.16;61.48;99571.66;5091413;28;20098;-66
2022/10/20 10:55:27;;;;;;;1.23;1.13;;;;;;;8.15;59.32;99569.09;5099595;28;20051;-66
2022/10/20 10:58:09;;;;;;;6.38;1.55;;;;;;;8.20;59.41;99580.22;5084811;28;20038;-67
2022/10/20 11:01:02;;;;;;;1.27;0.98;;;;;;;8.16;57.84;99571.66;5102987;28;20023;-67
2022/10/20 11:03:46;;;;;;;1.10;0.98;;;;;;;8.11;60.07;99571.72;5099065;28;20028;-66
2022/10/20 11:06:17;;;;;;;1.30;1.20;;;;;;;8.17;59.79;99580.28;5100660;28;20024;-67
2022/10/20 11:08:46;;;;;;;3.00;1.27;;;;;;;8.16;59.89;99573.41;5102905;28;20235;-68
2022/10/20 11:11:33;;;;;;;1.95;1.17;;;;;;;8.07;59.75;99582.94;5089557;28;20035;-68
2022/10/20 11:14:07;;;;;;;1.20;1.10;;;;;;;8.15;58.87;99574.25;5094082;28;20054;-67
2022/10/20 11:17:02;;;;;;;1.40;1.17;;;;;;;8.08;59.92;99569.19;5095905;28;20031;-67
2022/10/20 11:19:27;;;;;;;1.10;1.00;;;;;;;8.29;59.96;99577.50;5083236;28;20228;-67
2022/10/20 11:21:58;;;;;;;2.35;1.10;;;;;;;8.30;59.54;99579.22;5084413;28;20028;-68
2022/10/20 11:24:46;;;;;;;3.33;1.50;;;;;;;8.41;60.07;99574.75;5082828;28;20036;-67
2022/10/20 11:27:14;;;;;;;1.70;1.25;;;;;;;8.41;59.61;99582.50;5083048;28;20028;-66
2022/10/20 11:30:07;;;;;;;2.17;1.33;;;;;;;8.30;58.48;99568.91;5099539;28;20216;-66
2022/10/20 11:32:35;;;;;;;2.40;1.50;;;;;;;8.45;59.78;99586.78;5087123;28;20278;-68
2022/10/20 11:35:25;;;;;;;1.90;1.30;;;;;;;8.50;58.78;99591.03;5103235;28;20039;-67
2022/10/20 11:38:04;;;;;;;2.85;1.80;;;;;;;8.47;59.09;99586.75;5093657;28;20052;-66
2022/10/20 11:40:37;;;;;;;5.18;1.67;;;;;;;8.25;60.10;99586.16;5089153;28;20060;-67
2022/10/20 11:43:12;;;;;;;2.05;1.50;;;;;;;8.26;61.12;99578.41;5099068;28;20075;-67
2022/10/20 11:46:02;;;;;;;6.10;1.60;;;;;;;8.26;61.69;99588.72;5082553;28;20028;-67
2022/10/20 11:48:33;;;;;;;3.58;1.80;;;;;;;8.33;61.44;99594.66;5098625;28;20366;-66
2022/10/20 11:51:29;;;;;;;4.10;2.10;;;;;;;8.29;60.78;99587.81;5101454;28;20055;-67
2022/10/20 11:54:32;;;;;;;2.00;1.70;;;;;;;8.30;61.40;99592.13;5086406;28;20388;-66
2022/10/20 11:57:18;;;;;;;2.45;1.70;;;;;;;8.29;61.54;99591.28;5105278;28;20024;-66